createdAt,value
2022-08-12T00:02:49.613Z,15.30
2022-08-12T00:09:10.933Z,15.10
2022-08-12T00:15:35.386Z,14.80
2022-08-12T00:21:57.154Z,14.60
2022-08-12T00:28:18.027Z,14.40
2022-08-12T00:34:38.415Z,14.60
2022-08-12T00:41:00.805Z,14.40
2022-08-12T00:47:02.792Z,14.30
2022-08-12T00:53:07.074Z,14.00
2022-08-12T00:59:09.296Z,13.90
2022-08-12T01:05:32.677Z,13.90
2022-08-12T01:11:34.655Z,13.60
2022-08-12T01:17:36.755Z,13.60
2022-08-12T01:23:46.967Z,13.80
2022-08-12T01:29:55.127Z,13.80
2022-08-12T01:36:08.377Z,13.70
2022-08-12T01:42:11.421Z,13.50
2022-08-12T01:48:37.022Z,13.40
2022-08-12T01:54:44.803Z,13.40
2022-08-12T02:00:56.022Z,13.10
2022-08-12T02:07:37.433Z,13.10
2022-08-12T02:14:02.049Z,13.00
2022-08-12T02:20:15.730Z,12.80
2022-08-12T02:26:19.967Z,12.70
2022-08-12T02:32:22.374Z,12.50
2022-08-12T02:38:27.789Z,12.40
2022-08-12T02:44:37.404Z,12.30
2022-08-12T02:50:50.851Z,12.40
2022-08-12T02:56:54.007Z,12.30
2022-08-12T03:02:58.589Z,12.10
2022-08-12T03:09:04.640Z,12.10
2022-08-12T03:15:10.956Z,12.10
2022-08-12T03:21:15.582Z,12.10
2022-08-12T03:27:17.779Z,11.90
2022-08-12T03:33:21.181Z,11.80
2022-08-12T03:39:40.727Z,11.70
2022-08-12T03:46:02.110Z,11.50
2022-08-12T03:52:23.579Z,11.40
2022-08-12T03:58:44.537Z,11.50
2022-08-12T04:04:47.300Z,11.60
2022-08-12T04:11:09.908Z,11.60
2022-08-12T04:17:12.433Z,11.60
2022-08-12T04:23:17.415Z,11.60
2022-08-12T04:29:22.035Z,11.60
2022-08-12T04:35:43.975Z,11.60
2022-08-12T04:41:58.464Z,11.70
2022-08-12T04:48:02.054Z,11.80
2022-08-12T04:54:05.182Z,11.70
2022-08-12T05:00:12.572Z,12.00
2022-08-12T05:06:20.857Z,12.20
2022-08-12T05:12:34.456Z,12.50
2022-08-12T05:18:38.509Z,13.60
2022-08-12T05:24:41.607Z,13.80
2022-08-12T05:30:49.236Z,14.40
2022-08-12T05:36:51.065Z,14.70
2022-08-12T05:42:55.963Z,15.30
2022-08-12T05:49:03.522Z,16.20
2022-08-12T05:55:05.678Z,17.00
2022-08-12T06:02:10.464Z,18.60
2022-08-12T06:08:00.076Z,19.30
2022-08-12T06:13:58.467Z,19.10
2022-08-12T06:20:28.418Z,18.70
2022-08-12T06:26:26.221Z,18.40
2022-08-12T06:32:29.608Z,18.20
2022-08-12T06:38:34.950Z,18.10
2022-08-12T06:44:41.875Z,18.20
2022-08-12T06:50:44.457Z,18.20
2022-08-12T06:57:03.708Z,18.30
2022-08-12T07:03:16.264Z,18.50
2022-08-12T07:10:03.905Z,18.60
2022-08-12T07:15:50.277Z,18.80
2022-08-12T07:22:02.392Z,19.10
2022-08-12T07:28:16.659Z,19.40
2022-08-12T07:34:19.017Z,19.70
2022-08-12T07:40:20.910Z,20.00
2022-08-12T07:46:31.235Z,20.30
2022-08-12T07:52:34.170Z,20.70
2022-08-12T07:58:45.253Z,21.20
2022-08-12T08:04:57.683Z,21.50
2022-08-12T08:11:19.527Z,21.80
2022-08-12T08:17:21.650Z,22.10
2022-08-12T08:23:46.348Z,22.50
2022-08-12T08:29:48.982Z,22.90
2022-08-12T08:35:50.751Z,23.40
2022-08-12T08:42:19.821Z,23.70
2022-08-12T08:48:24.753Z,24.10
2022-08-12T08:54:29.215Z,24.50
2022-08-12T09:00:31.112Z,24.80
2022-08-12T09:06:37.130Z,25.10
2022-08-12T09:13:01.953Z,25.60
2022-08-12T09:19:06.328Z,26.00
2022-08-12T09:25:33.268Z,26.30
2022-08-12T09:32:03.615Z,26.70
2022-08-12T09:38:00.747Z,27.00
2022-08-12T09:44:39.579Z,27.10
2022-08-12T09:50:41.647Z,27.20
2022-08-12T09:56:59.710Z,27.60
2022-08-12T10:03:32.566Z,27.50
2022-08-12T10:09:57.479Z,27.50
2022-08-12T10:16:02.033Z,27.90
2022-08-12T10:22:17.151Z,27.70
2022-08-12T10:29:01.856Z,28.10
2022-08-12T10:35:05.401Z,28.10
2022-08-12T10:41:57.348Z,28.10
2022-08-12T10:48:07.418Z,28.00
2022-08-12T10:54:13.612Z,28.30
2022-08-12T11:00:34.944Z,28.30
2022-08-12T11:07:06.817Z,28.30
2022-08-12T11:13:03.255Z,28.50
2022-08-12T11:19:12.093Z,28.30
2022-08-12T11:25:14.876Z,28.40
2022-08-12T11:31:17.404Z,28.60
2022-08-12T11:37:26.401Z,28.50
2022-08-12T11:43:30.855Z,28.40
2022-08-12T11:49:32.883Z,28.70
2022-08-12T11:55:35.587Z,28.70
2022-08-12T12:02:00.731Z,28.90
2022-08-12T12:08:38.223Z,29.00
2022-08-12T12:14:38.210Z,29.00
2022-08-12T12:20:40.938Z,28.80
2022-08-12T12:26:42.755Z,28.70
2022-08-12T12:32:53.350Z,28.90
2022-08-12T12:38:55.434Z,28.90
2022-08-12T12:44:57.247Z,29.00
2022-08-12T12:51:48.399Z,29.10
2022-08-12T12:58:00.727Z,29.20
2022-08-12T13:04:03.219Z,29.10
2022-08-12T13:10:05.378Z,29.30
2022-08-12T13:16:14.437Z,28.70
2022-08-12T13:22:23.520Z,28.30
2022-08-12T13:28:28.654Z,29.00
2022-08-12T13:34:34.954Z,29.10
2022-08-12T13:40:40.975Z,29.60
2022-08-12T13:46:42.798Z,30.00
2022-08-12T13:52:46.356Z,29.70
2022-08-12T13:58:52.727Z,29.10
2022-08-12T14:04:56.638Z,29.40
2022-08-12T14:10:58.990Z,29.60
2022-08-12T14:17:02.375Z,29.60
2022-08-12T14:24:00.957Z,29.70
2022-08-12T14:29:38.151Z,29.80
2022-08-12T14:35:53.364Z,29.70
2022-08-12T14:41:57.410Z,29.70
2022-08-12T14:47:59.329Z,29.90
2022-08-12T14:56:59.270Z,30.10
2022-08-12T15:00:47.336Z,30.00
2022-08-12T15:06:53.322Z,29.90
2022-08-12T15:12:58.264Z,29.60
2022-08-12T15:19:01.460Z,29.50
2022-08-12T15:25:17.835Z,29.40
2022-08-12T15:31:27.918Z,29.10
2022-08-12T15:38:09.005Z,29.30
2022-08-12T15:44:37.323Z,29.60
2022-08-12T15:50:32.384Z,29.50
2022-08-12T15:56:37.221Z,29.50
2022-08-12T16:02:50.569Z,29.80
2022-08-12T16:08:58.011Z,29.80
2022-08-12T16:15:04.341Z,29.50
2022-08-12T16:21:51.620Z,29.60
2022-08-12T16:27:51.680Z,28.70
2022-08-12T16:33:59.488Z,28.20
2022-08-12T16:40:06.535Z,28.30
2022-08-12T16:46:31.318Z,28.50
2022-08-12T16:52:34.849Z,28.30
2022-08-12T16:58:40.485Z,28.30
2022-08-12T17:04:52.873Z,28.50
2022-08-12T17:10:57.719Z,28.90
2022-08-12T17:17:04.455Z,30.10
2022-08-12T17:23:14.435Z,30.50
2022-08-12T17:29:32.405Z,30.10
2022-08-12T17:35:49.983Z,30.00
2022-08-12T17:41:56.566Z,29.50
2022-08-12T17:48:05.295Z,29.50
2022-08-12T17:54:12.660Z,29.40
2022-08-12T18:00:16.678Z,28.90
2022-08-12T18:06:21.172Z,28.60
2022-08-12T18:12:42.735Z,28.60
2022-08-12T18:18:50.602Z,28.30
2022-08-12T18:25:03.937Z,27.40
2022-08-12T18:31:06.921Z,26.10
2022-08-12T18:37:40.995Z,25.40
2022-08-12T18:43:44.711Z,24.80
2022-08-12T18:49:57.903Z,23.70
2022-08-12T18:56:04.401Z,22.90
2022-08-12T19:02:19.134Z,22.40
2022-08-12T19:08:29.887Z,21.90
2022-08-12T19:14:35.198Z,21.30
2022-08-12T19:20:39.273Z,21.10
2022-08-12T19:26:42.431Z,20.80
2022-08-12T19:32:48.986Z,20.50
2022-08-12T19:38:57.062Z,20.20
2022-08-12T19:45:04.537Z,20.10
2022-08-12T19:51:22.687Z,19.90
2022-08-12T19:57:28.985Z,19.50
2022-08-12T20:03:39.796Z,19.40
2022-08-12T20:09:47.774Z,19.20
2022-08-12T20:15:58.791Z,19.10
2022-08-12T20:22:03.415Z,19.10
2022-08-12T20:28:09.557Z,19.00
2022-08-12T20:34:12.106Z,18.70
2022-08-12T20:40:14.318Z,18.40
2022-08-12T20:46:19.108Z,18.50
2022-08-12T20:52:25.505Z,18.50
2022-08-12T20:58:41.756Z,18.30
2022-08-12T21:05:16.099Z,18.30
2022-08-12T21:11:26.406Z,18.10
2022-08-12T21:18:08.792Z,17.90
2022-08-12T21:23:59.756Z,17.90
2022-08-12T21:30:06.055Z,18.00
2022-08-12T21:36:14.519Z,18.00
2022-08-12T21:42:32.691Z,17.80
2022-08-12T21:48:57.543Z,17.50
2022-08-12T21:55:18.056Z,17.60
2022-08-12T22:07:45.937Z,17.50
2022-08-12T22:14:07.274Z,17.60
2022-08-12T22:20:17.969Z,17.30
2022-08-12T22:26:37.335Z,17.10
2022-08-12T22:32:55.200Z,16.60
2022-08-12T22:39:26.370Z,16.30
2022-08-12T22:46:26.693Z,16.00
2022-08-12T22:52:38.669Z,15.80
2022-08-12T22:58:41.576Z,15.50
2022-08-12T23:04:43.489Z,15.40
2022-08-12T23:10:48.921Z,15.00
2022-08-12T23:16:51.716Z,14.80
2022-08-12T23:22:55.966Z,14.60
2022-08-12T23:29:30.149Z,14.40
2022-08-12T23:35:45.827Z,14.60
2022-08-12T23:42:17.967Z,14.70
2022-08-12T23:48:23.250Z,14.60
2022-08-12T23:54:44.054Z,14.40
